Terminal Aerodrome Forecast
Issued by NWS

Home | Current Version | Previous Version | Graphics & Text | Print | Product List | Glossary On
Versions: 1 2 3 4 5 6 7 8 9 10 11 12 13 14 15 16 17 18 19 20 21 22 23 24 25 26 27 28 29 30 31 32 33 34 35 36 37 38
000
FTUS43 KLOT 251202 AAB
TAFORD
TAF AMD
KORD 251202Z 2512/2618 30008KT P6SM BKN050
     FM251600 30012KT P6SM SCT035 BKN050
     FM252200 32008KT P6SM FEW030 BKN050
     FM260800 35007KT P6SM BKN050=

USA.gov is the U.S. government's official web portal to all federal, state and local government web resources and services.